Time;durP1;ratioP1;P1;durP2;ratioP2;P2;SDS_P1;SDS_P2;PMS_P1;PMS_P2;Temp;Humidity;BMP_temperature;BMP_pressure;BME280_temperature;BME280_humidity;BME280_pressure;Samples;Min_cycle;Max_cycle;Signal;HPM_P1;HPM_P2
2021/12/29 00:02:22;;;;;;;23.65;7.75;;;7.00;99.90;;;;;;5055133;28;20045;-61
2021/12/29 00:04:47;;;;;;;28.85;8.15;;;7.00;99.90;;;;;;5051558;28;20048;-61
2021/12/29 00:07:13;;;;;;;26.13;7.82;;;6.90;99.90;;;;;;5060679;28;20040;-60
2021/12/29 00:09:40;;;;;;;21.75;6.40;;;6.90;99.90;;;;;;5060408;28;20049;-60
2021/12/29 00:12:08;;;;;;;22.00;7.13;;;6.90;99.90;;;;;;5073217;28;20037;-60
2021/12/29 00:14:34;;;;;;;15.57;5.93;;;6.80;99.90;;;;;;5062527;28;20086;-60
2021/12/29 00:17:00;;;;;;;15.95;6.47;;;6.80;99.90;;;;;;5068079;28;20040;-60
2021/12/29 00:19:27;;;;;;;13.27;5.80;;;6.80;99.90;;;;;;5061263;28;20048;-60
2021/12/29 00:21:52;;;;;;;15.35;6.20;;;6.80;99.90;;;;;;5056500;28;20060;-60
2021/12/29 00:24:18;;;;;;;14.65;6.05;;;6.80;99.90;;;;;;5064861;28;20044;-61
2021/12/29 00:26:43;;;;;;;18.67;6.68;;;6.80;99.90;;;;;;5071529;28;20040;-61
2021/12/29 00:29:09;;;;;;;14.35;6.03;;;6.80;99.90;;;;;;5055907;28;20408;-61
2021/12/29 00:31:35;;;;;;;14.85;5.75;;;6.80;99.90;;;;;;5061797;28;20043;-61
2021/12/29 00:34:00;;;;;;;12.98;5.68;;;6.80;99.90;;;;;;5061612;28;20041;-61
2021/12/29 00:36:27;;;;;;;13.73;5.13;;;6.80;99.90;;;;;;5070651;28;20044;-61
2021/12/29 00:38:53;;;;;;;17.48;5.88;;;6.80;99.90;;;;;;5070343;28;20078;-61
2021/12/29 00:41:19;;;;;;;21.77;6.50;;;6.80;99.90;;;;;;5058052;28;20094;-61
2021/12/29 00:43:45;;;;;;;21.90;6.90;;;6.80;99.90;;;;;;5072543;28;20051;-61
2021/12/29 00:46:12;;;;;;;21.42;7.00;;;6.80;99.90;;;;;;5063466;28;20047;-60
2021/12/29 00:48:42;;;;;;;30.23;7.43;;;6.80;99.90;;;;;;5057670;28;20459;-61
2021/12/29 00:51:08;;;;;;;25.25;7.32;;;6.80;99.90;;;;;;5056493;28;20045;-61
2021/12/29 00:53:34;;;;;;;35.75;7.97;;;6.80;99.90;;;;;;5062347;28;20091;-61
2021/12/29 00:56:00;;;;;;;28.00;7.75;;;6.80;99.90;;;;;;5060452;28;20438;-60
2021/12/29 00:58:26;;;;;;;32.65;8.20;;;6.80;99.90;;;;;;5068443;28;20328;-60
2021/12/29 01:00:52;;;;;;;30.65;7.72;;;6.80;99.90;;;;;;5062815;28;20079;-60
2021/12/29 01:03:18;;;;;;;34.88;7.88;;;6.80;99.90;;;;;;5072096;28;20067;-61
2021/12/29 01:05:44;;;;;;;38.40;8.25;;;6.80;99.90;;;;;;5067482;28;20056;-60
2021/12/29 01:08:10;;;;;;;34.45;7.90;;;6.80;99.90;;;;;;5054535;28;20048;-61
2021/12/29 01:10:37;;;;;;;33.85;8.10;;;6.80;99.90;;;;;;5055989;28;20368;-61
2021/12/29 01:13:04;;;;;;;43.60;8.65;;;6.80;99.90;;;;;;5068249;28;20047;-60
2021/12/29 01:15:47;;;;;;;35.60;8.10;;;6.90;99.90;;;;;;5073880;28;20146;-61
2021/12/29 01:18:13;;;;;;;36.97;8.68;;;6.90;99.90;;;;;;5060680;28;20132;-61
2021/12/29 01:20:39;;;;;;;32.30;7.57;;;6.90;99.90;;;;;;5063115;28;20499;-61
2021/12/29 01:23:04;;;;;;;50.88;8.43;;;6.90;99.90;;;;;;5057456;28;20037;-60
2021/12/29 01:25:30;;;;;;;32.65;8.80;;;6.90;99.90;;;;;;5061513;28;20072;-61
2021/12/29 01:27:56;;;;;;;48.03;8.60;;;6.90;99.90;;;;;;5058805;28;20116;-61
2021/12/29 01:30:22;;;;;;;34.78;7.90;;;6.90;99.90;;;;;;5055086;28;20451;-60
2021/12/29 01:32:47;;;;;;;42.13;7.93;;;6.90;99.90;;;;;;5062945;28;20047;-61
2021/12/29 01:35:13;;;;;;;41.53;8.95;;;6.90;99.90;;;;;;5073720;28;20131;-61
2021/12/29 01:37:39;;;;;;;32.85;8.27;;;6.90;99.90;;;;;;5073011;28;20127;-61
2021/12/29 01:40:09;;;;;;;50.25;9.85;;;6.90;99.90;;;;;;5057558;28;20484;-61
2021/12/29 01:42:34;;;;;;;59.53;9.88;;;6.90;99.90;;;;;;5061279;28;20151;-61
2021/12/29 01:45:01;;;;;;;48.38;9.50;;;6.90;99.90;;;;;;5073963;28;20162;-60
2021/12/29 01:47:29;;;;;;;47.92;11.25;;;6.90;99.90;;;;;;5072640;28;20048;-61
2021/12/29 01:49:56;;;;;;;55.80;11.13;;;6.90;99.90;;;;;;5073221;28;20053;-61
2021/12/29 01:52:26;;;;;;;57.95;11.82;;;6.90;99.90;;;;;;5062600;28;20084;-60
2021/12/29 01:54:52;;;;;;;64.25;11.10;;;7.00;99.90;;;;;;5053182;28;20472;-60
2021/12/29 01:57:18;;;;;;;59.08;10.93;;;7.00;99.90;;;;;;5053904;28;20041;-61
2021/12/29 01:59:44;;;;;;;71.43;11.23;;;7.00;99.90;;;;;;5059981;28;20068;-61
2021/12/29 02:02:14;;;;;;;66.32;10.75;;;7.00;99.90;;;;;;5062681;28;20077;-61
2021/12/29 02:04:41;;;;;;;70.90;10.73;;;7.00;99.90;;;;;;5055297;28;20045;-60
2021/12/29 02:07:07;;;;;;;62.97;10.43;;;7.00;99.90;;;;;;5064037;28;20040;-60
2021/12/29 02:09:32;;;;;;;49.53;9.18;;;7.00;99.90;;;;;;5065624;28;20037;-60
2021/12/29 02:11:58;;;;;;;51.88;9.40;;;7.00;99.90;;;;;;5063418;28;20087;-61
2021/12/29 02:14:23;;;;;;;50.30;9.05;;;7.00;99.90;;;;;;5063196;28;20037;-60
2021/12/29 02:16:49;;;;;;;44.17;9.43;;;7.00;99.90;;;;;;5057980;28;20483;-61
2021/12/29 02:19:15;;;;;;;48.40;9.05;;;7.00;99.90;;;;;;5061817;28;20145;-60
2021/12/29 02:21:53;;;;;;;38.38;8.52;;;7.00;99.90;;;;;;5072436;28;20044;-60
2021/12/29 02:24:23;;;;;;;34.92;8.27;;;7.10;99.90;;;;;;5068526;28;20135;-61
2021/12/29 02:26:50;;;;;;;30.17;8.18;;;7.10;99.90;;;;;;5072169;28;20139;-61
2021/12/29 02:29:18;;;;;;;38.67;9.32;;;7.20;99.90;;;;;;5070859;28;20502;-61
2021/12/29 02:31:44;;;;;;;;;;;7.20;99.90;;;;;;5069196;28;20391;-61
2021/12/29 02:34:13;;;;;;;34.97;8.32;;;7.20;99.90;;;;;;5053218;28;20391;-60
2021/12/29 02:36:43;;;;;;;42.72;9.10;;;7.20;99.90;;;;;;5062920;28;20079;-61
2021/12/29 02:39:15;;;;;;;52.70;9.40;;;7.20;99.90;;;;;;5072931;28;20076;-61
2021/12/29 02:41:44;;;;;;;42.35;9.35;;;7.20;99.90;;;;;;5063755;28;20117;-61
2021/12/29 02:44:15;;;;;;;42.22;10.30;;;7.20;99.90;;;;;;5070750;28;20124;-61
2021/12/29 02:46:41;;;;;;;46.63;10.68;;;7.20;99.90;;;;;;5068648;28;20052;-60
2021/12/29 02:49:07;;;;;;;41.15;10.95;;;7.20;99.90;;;;;;5072480;28;20044;-61
2021/12/29 02:51:33;;;;;;;45.25;11.77;;;7.30;99.90;;;;;;5063523;28;20053;-60
2021/12/29 02:54:00;;;;;;;43.42;11.63;;;7.30;99.90;;;;;;5065381;28;20041;-61
2021/12/29 02:56:26;;;;;;;45.85;13.07;;;7.30;99.90;;;;;;5070699;28;20044;-61
2021/12/29 02:58:53;;;;;;;42.13;12.95;;;7.30;99.90;;;;;;5068027;28;20398;-60
2021/12/29 03:01:20;;;;;;;43.08;12.85;;;7.40;99.90;;;;;;5070655;28;20097;-60
2021/12/29 03:03:46;;;;;;;41.30;13.77;;;7.40;99.90;;;;;;5061245;28;20051;-60
2021/12/29 03:06:12;;;;;;;39.92;15.07;;;7.50;99.90;;;;;;5067837;28;20052;-60
2021/12/29 03:08:39;;;;;;;48.85;16.40;;;7.50;99.90;;;;;;5070704;28;20489;-61
2021/12/29 03:11:05;;;;;;;50.97;17.27;;;7.50;99.90;;;;;;5057888;28;20053;-61
2021/12/29 03:13:33;;;;;;;55.83;17.83;;;7.50;99.90;;;;;;5061191;28;20112;-61
2021/12/29 03:16:00;;;;;;;48.55;17.83;;;7.60;99.90;;;;;;5052166;28;20037;-59
2021/12/29 03:18:26;;;;;;;53.60;18.45;;;7.60;99.90;;;;;;5058264;28;20048;-61
2021/12/29 03:20:51;;;;;;;66.55;21.08;;;7.60;99.90;;;;;;5055286;28;20032;-60
2021/12/29 03:23:18;;;;;;;63.90;19.95;;;;;;;;;;5052053;28;20048;-60
2021/12/29 03:25:47;;;;;;;52.28;19.08;;;7.70;99.90;;;;;;5065932;28;20064;-61
2021/12/29 03:28:17;;;;;;;56.35;20.20;;;7.60;99.90;;;;;;5070632;28;20384;-60
2021/12/29 03:30:46;;;;;;;53.95;19.92;;;7.60;99.90;;;;;;5057410;28;20198;-60
2021/12/29 03:33:12;;;;;;;45.45;19.02;;;7.60;99.90;;;;;;5051952;28;20056;-60
2021/12/29 03:35:45;;;;;;;49.85;19.77;;;7.70;99.90;;;;;;5056455;28;20037;-61
2021/12/29 03:38:18;;;;;;;44.85;19.30;;;7.70;99.90;;;;;;5071680;28;20162;-60
2021/12/29 03:40:44;;;;;;;53.05;18.85;;;7.70;99.90;;;;;;5060319;28;20427;-61
2021/12/29 03:43:11;;;;;;;57.47;19.67;;;7.70;99.90;;;;;;5071577;28;20037;-61
2021/12/29 03:45:39;;;;;;;51.30;18.73;;;7.60;99.90;;;;;;5068717;28;20029;-60
2021/12/29 03:48:06;;;;;;;51.97;17.88;;;7.70;99.90;;;;;;5051585;28;20059;-61
2021/12/29 03:50:31;;;;;;;48.95;18.00;;;7.70;99.90;;;;;;5054025;28;20120;-60
2021/12/29 03:52:57;;;;;;;50.42;17.80;;;7.60;99.90;;;;;;5068231;28;20487;-60
2021/12/29 03:55:23;;;;;;;45.45;17.05;;;7.60;99.90;;;;;;5056536;28;20045;-60
2021/12/29 03:57:49;;;;;;;39.53;16.27;;;7.60;99.90;;;;;;5069732;28;20029;-61
2021/12/29 04:00:17;;;;;;;43.08;16.25;;;7.60;99.90;;;;;;5055999;28;20056;-60
2021/12/29 04:02:42;;;;;;;39.50;15.93;;;7.70;99.90;;;;;;5064925;28;20079;-60
2021/12/29 04:05:14;;;;;;;42.83;16.50;;;7.60;99.90;;;;;;5069438;28;20076;-60
2021/12/29 04:07:40;;;;;;;39.15;15.88;;;7.60;99.90;;;;;;5071355;28;20095;-60
2021/12/29 04:10:06;;;;;;;48.03;16.30;;;7.70;99.90;;;;;;5053190;28;20080;-60
2021/12/29 04:12:32;;;;;;;47.45;16.42;;;7.60;99.90;;;;;;5071448;28;20067;-60
2021/12/29 04:14:58;;;;;;;41.00;16.02;;;7.60;99.90;;;;;;5070894;28;20491;-60
2021/12/29 04:17:29;;;;;;;45.65;17.13;;;7.60;99.90;;;;;;5065263;28;20045;-58
2021/12/29 04:22:40;;;;;;;48.72;16.90;;;7.60;99.90;;;;;;5052462;28;20148;-60
2021/12/29 04:25:06;;;;;;;40.67;16.20;;;7.60;99.90;;;;;;5059075;28;20507;-60
2021/12/29 04:27:32;;;;;;;43.10;17.33;;;7.60;99.90;;;;;;5067622;28;20040;-60
2021/12/29 04:29:58;;;;;;;51.80;17.67;;;7.60;99.90;;;;;;5067627;28;20544;-60
2021/12/29 04:32:24;;;;;;;46.97;18.40;;;7.60;99.90;;;;;;5057061;28;20040;-60
2021/12/29 04:34:50;;;;;;;66.55;20.30;;;7.60;99.90;;;;;;5063583;28;20033;-60
2021/12/29 04:37:15;;;;;;;61.88;20.08;;;7.60;99.90;;;;;;5066692;28;20121;-60
2021/12/29 04:39:41;;;;;;;57.30;20.77;;;7.60;99.90;;;;;;5063765;28;20462;-60
2021/12/29 04:42:06;;;;;;;63.05;21.10;;;7.60;99.90;;;;;;5061529;28;20479;-60
2021/12/29 04:44:32;;;;;;;53.83;20.65;;;7.60;99.90;;;;;;5054923;28;20124;-60
2021/12/29 04:46:58;;;;;;;52.28;19.65;;;7.50;99.90;;;;;;5066047;28;20049;-61
2021/12/29 04:49:28;;;;;;;65.53;20.92;;;7.60;99.90;;;;;;5066415;28;20501;-61
2021/12/29 04:52:03;;;;;;;61.30;20.30;;;7.50;99.90;;;;;;5064565;28;20036;-60
2021/12/29 04:54:32;;;;;;;37.95;17.48;;;7.50;99.90;;;;;;5058376;28;20091;-60
2021/12/29 04:56:59;;;;;;;55.97;20.30;;;7.50;99.90;;;;;;5062415;28;20495;-61
2021/12/29 04:59:26;;;;;;;57.08;20.17;;;7.60;99.90;;;;;;5063613;28;20048;-60
2021/12/29 05:01:52;;;;;;;61.30;20.42;;;7.60;99.90;;;;;;5071800;28;20050;-60
2021/12/29 05:04:45;;;;;;;62.90;20.83;;;7.50;99.90;;;;;;5071210;28;20056;-60
2021/12/29 05:09:51;;;;;;;45.72;19.20;;;7.50;99.90;;;;;;5060933;28;20482;-60
2021/12/29 05:12:17;;;;;;;53.92;19.95;;;7.50;99.90;;;;;;5062553;28;20095;-60
2021/12/29 05:14:43;;;;;;;48.20;20.35;;;7.50;99.90;;;;;;5072989;28;20383;-60
2021/12/29 05:17:08;;;;;;;54.53;20.40;;;7.50;99.90;;;;;;5069488;28;20037;-60
2021/12/29 05:19:34;;;;;;;48.25;19.33;;;7.50;99.90;;;;;;5065837;28;20071;-61
2021/12/29 05:22:00;;;;;;;54.10;20.35;;;7.60;99.90;;;;;;5059819;28;20120;-60
2021/12/29 05:24:26;;;;;;;52.10;20.38;;;7.50;99.90;;;;;;5066128;28;20139;-60
2021/12/29 05:26:51;;;;;;;51.63;20.13;;;7.60;99.90;;;;;;5073324;28;20049;-60
2021/12/29 05:29:17;;;;;;;65.68;20.25;;;7.60;99.90;;;;;;5071572;28;20051;-60
2021/12/29 05:31:43;;;;;;;71.75;22.15;;;7.60;99.90;;;;;;5062998;28;20040;-60
2021/12/29 05:34:08;;;;;;;57.55;20.05;;;7.50;99.90;;;;;;5064790;28;20123;-60
2021/12/29 05:36:34;;;;;;;70.60;21.05;;;7.60;99.90;;;;;;5063114;28;20076;-60
2021/12/29 05:38:59;;;;;;;61.38;19.75;;;7.60;99.90;;;;;;5054285;28;20056;-60
2021/12/29 05:41:25;;;;;;;61.13;20.00;;;7.50;99.90;;;;;;5053800;28;20064;-60
2021/12/29 05:43:51;;;;;;;59.13;18.92;;;7.60;99.90;;;;;;5062014;28;20052;-61
2021/12/29 05:46:16;;;;;;;56.03;18.33;;;7.60;99.90;;;;;;5069396;28;20450;-60
2021/12/29 05:48:42;;;;;;;48.75;17.67;;;7.60;99.90;;;;;;5063412;28;20037;-60
2021/12/29 05:51:11;;;;;;;42.90;16.55;;;7.50;99.90;;;;;;5071269;28;20423;-60
2021/12/29 05:53:38;;;;;;;51.10;17.30;;;7.50;99.90;;;;;;5054416;28;20130;-61
2021/12/29 05:56:03;;;;;;;42.58;14.50;;;7.50;99.90;;;;;;5058799;28;20182;-60
2021/12/29 05:58:29;;;;;;;39.78;13.88;;;7.50;99.90;;;;;;5056035;28;20436;-60
2021/12/29 06:00:54;;;;;;;40.90;14.32;;;7.50;99.90;;;;;;5069323;28;20406;-60
2021/12/29 06:03:20;;;;;;;40.33;14.85;;;7.60;99.90;;;;;;5065478;28;20397;-59
2021/12/29 06:05:46;;;;;;;46.70;14.85;;;7.60;99.90;;;;;;5069356;28;20392;-60
2021/12/29 06:08:11;;;;;;;44.70;14.18;;;7.60;99.90;;;;;;5054976;28;20446;-60
2021/12/29 06:10:37;;;;;;;44.38;14.35;;;7.50;99.90;;;;;;5068895;28;20086;-60
2021/12/29 06:13:03;;;;;;;36.05;14.20;;;7.50;99.90;;;;;;5057966;28;20076;-61
2021/12/29 06:15:28;;;;;;;46.42;14.13;;;7.50;99.90;;;;;;5068045;28;20076;-60
2021/12/29 06:17:54;;;;;;;49.10;15.45;;;7.50;99.90;;;;;;5063472;28;20040;-60
2021/12/29 06:20:19;;;;;;;40.25;14.27;;;7.50;99.90;;;;;;5063894;28;20430;-60
2021/12/29 06:22:45;;;;;;;49.28;15.07;;;7.50;99.90;;;;;;5053552;28;20086;-60
2021/12/29 06:25:13;;;;;;;46.58;14.70;;;7.50;99.90;;;;;;5060138;28;20094;-61
2021/12/29 06:27:39;;;;;;;44.10;14.50;;;7.50;99.90;;;;;;5068297;28;20127;-60
2021/12/29 06:30:07;;;;;;;53.58;15.02;;;7.50;99.90;;;;;;5072497;28;20048;-60
2021/12/29 06:32:33;;;;;;;;;;;7.60;99.90;;;;;;5065632;28;20041;-61
2021/12/29 06:34:58;;;;;;;47.72;15.00;;;7.60;99.90;;;;;;5052388;28;19927;-61
2021/12/29 06:37:24;;;;;;;47.70;14.70;;;7.60;99.90;;;;;;5067200;28;20066;-61
2021/12/29 06:39:51;;;;;;;45.10;13.88;;;7.60;99.90;;;;;;5071604;28;20041;-61
2021/12/29 06:42:17;;;;;;;31.40;12.57;;;7.50;99.90;;;;;;5054159;28;20403;-60
2021/12/29 06:44:44;;;;;;;63.45;15.73;;;7.60;99.90;;;;;;5052481;28;20140;-60
2021/12/29 06:47:11;;;;;;;45.70;13.77;;;7.50;99.90;;;;;;5064318;28;20414;-60
2021/12/29 06:49:36;;;;;;;48.38;15.82;;;7.50;99.90;;;;;;5052533;28;20037;-60
2021/12/29 06:52:03;;;;;;;55.05;15.23;;;7.60;99.90;;;;;;5063121;28;20041;-61
2021/12/29 06:54:30;;;;;;;73.65;15.55;;;7.60;99.90;;;;;;5070647;28;20730;-60
2021/12/29 06:56:56;;;;;;;65.47;16.30;;;7.50;99.90;;;;;;5062075;28;20142;-61
2021/12/29 06:59:22;;;;;;;58.08;16.05;;;7.50;99.90;;;;;;5059990;28;20123;-60
2021/12/29 07:01:48;;;;;;;62.45;16.10;;;7.50;99.90;;;;;;5067325;28;20090;-60
2021/12/29 07:04:13;;;;;;;55.28;15.57;;;7.60;99.90;;;;;;5070610;28;20461;-60
2021/12/29 07:06:39;;;;;;;66.75;16.45;;;7.50;99.90;;;;;;5062080;28;20060;-60
2021/12/29 07:09:05;;;;;;;73.32;16.45;;;7.60;99.90;;;;;;5052359;28;20129;-60
2021/12/29 07:11:31;;;;;;;59.35;15.77;;;7.60;99.90;;;;;;5064021;28;20392;-60
2021/12/29 07:13:59;;;;;;;64.35;15.35;;;7.60;99.90;;;;;;5072343;28;20364;-61
2021/12/29 07:16:25;;;;;;;49.00;15.25;;;7.60;99.90;;;;;;5061944;28;20445;-60
2021/12/29 07:18:50;;;;;;;62.25;15.68;;;7.60;99.90;;;;;;5059962;28;20041;-60
2021/12/29 07:21:16;;;;;;;60.00;15.50;;;7.60;99.90;;;;;;5057521;28;20126;-60
2021/12/29 07:23:42;;;;;;;54.55;15.93;;;7.60;99.90;;;;;;5070180;28;20040;-60
2021/12/29 07:26:07;;;;;;;67.53;16.70;;;7.60;99.90;;;;;;5064467;28;20045;-61
2021/12/29 07:28:33;;;;;;;57.97;15.52;;;7.60;99.90;;;;;;5066383;28;20036;-60
2021/12/29 07:30:58;;;;;;;57.95;15.52;;;7.60;99.90;;;;;;5065077;28;20045;-61
2021/12/29 07:33:24;;;;;;;59.50;15.25;;;7.70;99.90;;;;;;5066066;28;20063;-60
2021/12/29 07:35:50;;;;;;;57.13;16.40;;;7.60;99.90;;;;;;5059812;28;20040;-60
2021/12/29 07:38:15;;;;;;;69.95;16.30;;;7.60;99.90;;;;;;5071775;28;20037;-61
2021/12/29 07:40:41;;;;;;;58.92;15.63;;;7.70;99.90;;;;;;5066053;28;20458;-60
2021/12/29 07:43:07;;;;;;;57.97;15.32;;;7.70;99.90;;;;;;5071417;28;20086;-60
2021/12/29 07:45:32;;;;;;;70.53;15.77;;;7.70;99.90;;;;;;5067983;28;20127;-60
2021/12/29 07:47:58;;;;;;;64.25;16.15;;;7.70;99.90;;;;;;5051637;28;20463;-61
2021/12/29 07:50:24;;;;;;;62.03;16.42;;;7.70;99.90;;;;;;5052928;28;20056;-62
2021/12/29 07:52:49;;;;;;;58.45;15.15;;;7.70;99.90;;;;;;5064182;28;20033;-60
2021/12/29 07:55:16;;;;;;;72.40;16.85;;;7.70;99.90;;;;;;5057895;28;20454;-60
2021/12/29 07:57:42;;;;;;;73.75;17.02;;;7.60;99.90;;;;;;5069855;28;20384;-60
2021/12/29 08:00:09;;;;;;;56.40;15.98;;;7.70;99.90;;;;;;5068926;28;20128;-58
2021/12/29 08:02:35;;;;;;;66.25;16.70;;;7.70;99.90;;;;;;5053994;28;20071;-60
2021/12/29 08:05:03;;;;;;;62.88;15.93;;;7.70;99.90;;;;;;5071337;28;20049;-61
2021/12/29 08:07:30;;;;;;;74.82;16.52;;;7.70;99.90;;;;;;5062736;28;20128;-60
2021/12/29 08:09:56;;;;;;;64.35;16.05;;;7.70;99.90;;;;;;5066357;28;20094;-60
2021/12/29 08:12:21;;;;;;;53.30;16.60;;;7.70;99.90;;;;;;5051323;28;20045;-60
2021/12/29 08:14:48;;;;;;;49.20;14.80;;;7.70;99.90;;;;;;5060978;28;20047;-60
2021/12/29 08:17:15;;;;;;;57.33;15.15;;;7.70;99.90;;;;;;5062130;28;20048;-60
2021/12/29 08:19:41;;;;;;;45.63;13.90;;;7.70;99.90;;;;;;5063882;28;20036;-60
2021/12/29 08:22:07;;;;;;;41.95;13.57;;;7.70;99.90;;;;;;5059836;28;20037;-60
2021/12/29 08:24:32;;;;;;;54.03;13.80;;;7.80;99.90;;;;;;5070431;28;20071;-60
2021/12/29 08:26:58;;;;;;;43.67;13.80;;;7.80;99.90;;;;;;5058412;28;20052;-60
2021/12/29 08:29:24;;;;;;;44.03;13.60;;;7.80;99.90;;;;;;5054178;28;20036;-60
2021/12/29 08:31:49;;;;;;;36.30;13.05;;;7.80;99.90;;;;;;5065447;28;20052;-60
2021/12/29 08:34:15;;;;;;;36.47;12.35;;;7.80;99.90;;;;;;5075526;28;20085;-60
2021/12/29 08:36:42;;;;;;;36.15;12.52;;;7.80;99.90;;;;;;5070834;28;20447;-60
2021/12/29 08:39:08;;;;;;;37.30;11.98;;;7.80;99.90;;;;;;5070354;28;20044;-61
2021/12/29 08:41:33;;;;;;;36.95;12.43;;;7.90;99.90;;;;;;5069074;28;20059;-61
2021/12/29 08:43:59;;;;;;;32.05;11.05;;;7.90;99.90;;;;;;5067928;28;20045;-60
2021/12/29 08:46:26;;;;;;;31.20;11.15;;;7.90;99.90;;;;;;5066252;28;20471;-60
2021/12/29 08:48:52;;;;;;;29.40;10.73;;;7.90;99.90;;;;;;5069247;28;20087;-60
2021/12/29 08:51:19;;;;;;;29.50;11.65;;;8.00;99.90;;;;;;5061918;28;20045;-60
2021/12/29 08:53:45;;;;;;;34.03;11.27;;;8.00;99.90;;;;;;5061467;28;20052;-61
2021/12/29 08:56:12;;;;;;;31.33;12.15;;;8.00;99.90;;;;;;5066501;28;20075;-61
2021/12/29 08:58:38;;;;;;;40.38;12.38;;;8.10;99.90;;;;;;5072007;28;20040;-61
2021/12/29 09:01:04;;;;;;;36.63;12.48;;;8.10;99.90;;;;;;5065775;28;20044;-61
2021/12/29 09:03:30;;;;;;;46.15;13.55;;;8.10;99.90;;;;;;5074741;28;20033;-61
2021/12/29 09:05:56;;;;;;;40.13;12.38;;;8.10;99.90;;;;;;5074703;28;20050;-61
2021/12/29 09:08:21;;;;;;;48.83;13.73;;;8.10;99.90;;;;;;5056219;28;20124;-61
2021/12/29 09:10:47;;;;;;;60.65;15.05;;;8.20;99.90;;;;;;5072734;28;20049;-59
2021/12/29 09:13:13;;;;;;;54.20;14.52;;;8.20;99.90;;;;;;5074964;28;20052;-61
2021/12/29 09:15:39;;;;;;;69.35;15.27;;;8.20;99.90;;;;;;5074186;28;20059;-61
2021/12/29 09:18:05;;;;;;;53.17;15.45;;;8.20;99.90;;;;;;5074326;28;20080;-61
2021/12/29 09:20:33;;;;;;;57.83;16.42;;;8.30;99.90;;;;;;5054906;28;20061;-61
2021/12/29 09:23:02;;;;;;;60.22;16.20;;;8.30;99.90;;;;;;5054448;28;20098;-61
2021/12/29 09:25:28;;;;;;;55.17;15.20;;;8.30;99.90;;;;;;5054307;28;20053;-61
2021/12/29 09:27:54;;;;;;;54.45;15.90;;;8.30;99.90;;;;;;5054334;28;20048;-61
2021/12/29 09:30:22;;;;;;;49.38;15.10;;;8.30;99.90;;;;;;5054594;28;20644;-61
2021/12/29 09:32:48;;;;;;;49.20;15.70;;;8.30;99.90;;;;;;5054445;28;20049;-60
2021/12/29 09:35:16;;;;;;;54.42;16.58;;;8.30;99.90;;;;;;5072411;28;20048;-61
2021/12/29 09:37:42;;;;;;;59.92;16.10;;;8.30;99.90;;;;;;5072421;28;20048;-61
2021/12/29 09:40:10;;;;;;;57.10;15.95;;;8.30;99.90;;;;;;5074123;28;20479;-61
2021/12/29 09:42:36;;;;;;;51.17;15.80;;;8.30;99.90;;;;;;5070017;28;20048;-60
2021/12/29 09:45:03;;;;;;;61.78;15.60;;;8.30;99.90;;;;;;5068249;28;20131;-61
2021/12/29 09:47:29;;;;;;;53.22;15.95;;;8.30;99.90;;;;;;5056197;28;20076;-61
2021/12/29 09:49:55;;;;;;;74.45;16.98;;;8.30;99.90;;;;;;5061044;28;20470;-61
2021/12/29 09:52:21;;;;;;;58.60;16.25;;;8.30;99.90;;;;;;5063154;28;20048;-61
2021/12/29 09:54:47;;;;;;;56.25;17.15;;;8.30;99.90;;;;;;5059164;28;20043;-61
2021/12/29 09:57:13;;;;;;;55.72;16.67;;;8.30;99.90;;;;;;5055505;28;20076;-60
2021/12/29 09:59:39;;;;;;;56.20;16.10;;;8.40;99.90;;;;;;5061275;28;20033;-61
2021/12/29 10:02:06;;;;;;;50.17;16.05;;;8.40;99.90;;;;;;5054064;28;20045;-61
2021/12/29 10:04:34;;;;;;;41.83;15.37;;;8.40;99.90;;;;;;5062469;28;20044;-60
2021/12/29 10:07:12;;;;;;;52.30;15.98;;;8.40;99.90;;;;;;5059579;28;20700;-61
2021/12/29 10:09:37;;;;;;;43.38;16.33;;;8.40;99.90;;;;;;5066269;28;20086;-61
2021/12/29 10:12:10;;;;;;;38.47;15.57;;;8.40;99.90;;;;;;5053176;28;20128;-62
2021/12/29 10:14:36;;;;;;;37.33;15.32;;;8.50;99.90;;;;;;5079522;28;20080;-61
2021/12/29 10:17:09;;;;;;;41.78;15.35;;;;;;;;;;5072922;28;20040;-61
2021/12/29 10:19:37;;;;;;;31.15;13.90;;;8.50;99.90;;;;;;5062137;28;20129;-61
2021/12/29 10:22:03;;;;;;;32.78;13.68;;;8.50;99.90;;;;;;5053330;28;20510;-61
2021/12/29 10:24:29;;;;;;;36.03;13.70;;;8.60;99.90;;;;;;5066232;28;20048;-61
2021/12/29 10:26:57;;;;;;;27.27;13.07;;;8.60;99.90;;;;;;5067248;28;20653;-61
2021/12/29 10:29:23;;;;;;;27.60;12.98;;;8.70;99.90;;;;;;5063908;28;20137;-61
2021/12/29 10:31:55;;;;;;;27.98;11.75;;;8.70;99.90;;;;;;5070664;28;20487;-61
2021/12/29 10:34:26;;;;;;;27.08;12.50;;;8.70;99.90;;;;;;5068447;28;20040;-61
2021/12/29 10:36:55;;;;;;;27.15;12.23;;;8.80;99.90;;;;;;5069019;28;20094;-61
2021/12/29 10:39:20;;;;;;;28.60;11.98;;;8.80;99.90;;;;;;5057147;28;20033;-61
2021/12/29 10:42:08;;;;;;;24.05;11.25;;;8.70;99.90;;;;;;5052775;28;20136;-61
2021/12/29 10:44:39;;;;;;;25.70;11.23;;;8.70;99.90;;;;;;5069705;28;20562;-60
2021/12/29 10:47:22;;;;;;;26.35;11.30;;;8.70;99.90;;;;;;5067170;28;20458;-61
2021/12/29 10:50:02;;;;;;;27.33;11.18;;;8.70;99.90;;;;;;5067528;28;20047;-61
2021/12/29 10:52:30;;;;;;;29.95;11.77;;;8.70;99.90;;;;;;5065412;28;20461;-61
2021/12/29 10:54:56;;;;;;;22.00;10.05;;;8.70;99.90;;;;;;5051997;28;20121;-61
2021/12/29 10:57:22;;;;;;;29.65;10.98;;;8.70;99.90;;;;;;5068425;28;20131;-60
2021/12/29 10:59:55;;;;;;;32.92;11.23;;;8.80;99.90;;;;;;5062993;28;20041;-60
2021/12/29 11:02:29;;;;;;;29.25;12.02;;;8.80;99.90;;;;;;5066751;28;20068;-61
2021/12/29 11:05:00;;;;;;;31.08;11.63;;;8.80;99.90;;;;;;5067706;28;20457;-61
2021/12/29 11:07:28;;;;;;;39.53;11.45;;;8.80;99.90;;;;;;5065231;28;20048;-62
2021/12/29 11:09:54;;;;;;;;;;;8.80;99.90;;;;;;5069484;28;20115;-60
2021/12/29 11:12:20;;;;;;;33.70;11.90;;;8.90;99.90;;;;;;5069047;28;20016;-62
2021/12/29 11:14:50;;;;;;;39.80;11.27;;;8.90;99.90;;;;;;5066193;28;20040;-62
2021/12/29 11:17:23;;;;;;;34.10;11.90;;;8.90;99.90;;;;;;5066481;28;20040;-62
2021/12/29 11:19:57;;;;;;;29.25;11.05;;;8.90;99.90;;;;;;5066707;28;20491;-62
2021/12/29 11:22:28;;;;;;;34.97;11.35;;;9.00;99.90;;;;;;5064283;28;20036;-62
2021/12/29 11:24:59;;;;;;;24.77;10.77;;;9.00;99.90;;;;;;5065342;28;20041;-61
2021/12/29 11:27:26;;;;;;;25.42;11.52;;;9.10;99.90;;;;;;5061438;28;20056;-62
2021/12/29 11:30:06;;;;;;;30.90;12.20;;;9.10;99.90;;;;;;5067135;28;20413;-62
2021/12/29 11:32:38;;;;;;;34.95;11.65;;;9.20;99.90;;;;;;5067121;28;20090;-62
2021/12/29 11:35:09;;;;;;;29.13;11.75;;;9.20;99.90;;;;;;5065643;28;20037;-62
2021/12/29 11:37:37;;;;;;;33.63;11.18;;;9.20;99.90;;;;;;5057294;28;20052;-62
2021/12/29 11:40:04;;;;;;;;;;;9.20;99.90;;;;;;5058485;28;20380;-61
2021/12/29 11:42:29;;;;;;;27.85;10.88;;;9.20;99.90;;;;;;5062515;28;19935;-61
2021/12/29 11:44:55;;;;;;;29.80;11.60;;;9.20;99.90;;;;;;5062666;28;20044;-62
2021/12/29 11:47:21;;;;;;;35.22;10.93;;;9.20;99.90;;;;;;5060605;28;20032;-62
2021/12/29 11:49:46;;;;;;;28.88;10.95;;;9.20;99.90;;;;;;5066661;28;20491;-62
2021/12/29 11:52:21;;;;;;;25.52;10.10;;;9.20;99.90;;;;;;5063539;28;20033;-62
2021/12/29 11:55:08;;;;;;;32.20;10.45;;;9.20;99.90;;;;;;5054713;28;20051;-62
2021/12/29 11:57:36;;;;;;;33.17;12.25;;;9.20;99.90;;;;;;5056960;28;20143;-61
2021/12/29 12:00:19;;;;;;;32.55;11.65;;;9.10;99.90;;;;;;5055771;28;20036;-62
2021/12/29 12:02:52;;;;;;;22.60;10.52;;;9.10;99.90;;;;;;5057455;28;20086;-62
2021/12/29 12:05:24;;;;;;;28.25;11.43;;;9.10;99.90;;;;;;5061717;28;20052;-62
2021/12/29 12:07:50;;;;;;;22.95;10.73;;;9.10;99.90;;;;;;5065249;28;20548;-62
2021/12/29 12:10:33;;;;;;;29.02;11.40;;;9.10;99.90;;;;;;5066075;28;20052;-62
2021/12/29 12:12:59;;;;;;;29.40;13.32;;;9.10;99.90;;;;;;5067224;28;20054;-62
2021/12/29 12:15:33;;;;;;;31.25;13.57;;;9.10;99.90;;;;;;5060752;28;20485;-61
2021/12/29 12:18:07;;;;;;;31.25;14.00;;;9.00;99.90;;;;;;5072441;28;20067;-62
2021/12/29 12:20:48;;;;;;;32.92;14.77;;;9.00;99.90;;;;;;5060137;28;20508;-62
2021/12/29 12:23:24;;;;;;;36.95;15.25;;;9.00;99.90;;;;;;5062603;28;20053;-62
2021/12/29 12:25:50;;;;;;;31.00;15.10;;;9.00;99.90;;;;;;5061979;28;20482;-61
2021/12/29 12:28:21;;;;;;;32.33;15.20;;;9.00;99.90;;;;;;5065902;28;20045;-62
2021/12/29 12:30:50;;;;;;;33.20;15.80;;;9.00;99.90;;;;;;5067590;28;20036;-62
2021/12/29 12:33:20;;;;;;;35.50;15.25;;;9.00;99.90;;;;;;5061295;28;20481;-61
2021/12/29 12:35:51;;;;;;;26.75;15.35;;;9.00;99.90;;;;;;5066484;28;20452;-62
2021/12/29 12:38:19;;;;;;;33.97;15.40;;;8.90;99.90;;;;;;5070877;28;20131;-62
2021/12/29 12:40:45;;;;;;;36.35;16.48;;;9.00;99.90;;;;;;5061130;28;20451;-61
2021/12/29 12:43:16;;;;;;;26.10;15.02;;;8.90;99.90;;;;;;5060900;28;20073;-62
2021/12/29 12:45:47;;;;;;;30.60;15.20;;;9.00;99.90;;;;;;5068811;28;20076;-62
2021/12/29 12:48:18;;;;;;;27.25;15.23;;;8.90;99.90;;;;;;5063630;28;20471;-62